Time;durP1;ratioP1;P1;durP2;ratioP2;P2;SDS_P1;SDS_P2;PMS_P1;PMS_P2;Temp;Humidity;BMP_temperature;BMP_pressure;BME280_temperature;BME280_humidity;BME280_pressure;Samples;Min_cycle;Max_cycle;Signal;HPM_P1;HPM_P2
2021/12/21 00:00:47;;;;;;;11.23;4.32;;;5.50;78.60;;;;;;5038281;28;20037;-75
2021/12/21 00:03:14;;;;;;;13.35;4.85;;;5.40;78.50;;;;;;5043493;28;20036;-75
2021/12/21 00:05:40;;;;;;;8.90;3.97;;;5.40;78.60;;;;;;5048296;28;20036;-75
2021/12/21 00:08:12;;;;;;;12.57;5.30;;;5.40;78.60;;;;;;5042114;28;20032;-75
2021/12/21 00:10:43;;;;;;;14.02;4.70;;;5.40;78.60;;;;;;5049562;28;20384;-75
2021/12/21 00:13:35;;;;;;;15.63;4.85;;;5.40;78.50;;;;;;5040888;28;20544;-75
2021/12/21 00:19:05;;;;;;;10.40;4.65;;;5.30;78.60;;;;;;5050688;28;20045;-75
2021/12/21 00:21:37;;;;;;;12.57;5.25;;;5.30;78.60;;;;;;5051370;28;20132;-75
2021/12/21 00:24:11;;;;;;;8.70;3.58;;;5.30;78.60;;;;;;5053639;28;20039;-75
2021/12/21 00:26:37;;;;;;;18.92;5.35;;;5.30;78.50;;;;;;5056135;28;20025;-75
2021/12/21 00:29:03;;;;;;;8.70;4.18;;;5.30;78.50;;;;;;5045253;28;20380;-75
2021/12/21 00:31:31;;;;;;;12.65;4.63;;;5.20;78.50;;;;;;5035938;28;20025;-75
2021/12/21 00:33:57;;;;;;;11.95;4.55;;;5.20;78.50;;;;;;5047440;28;20037;-75
2021/12/21 00:36:26;;;;;;;14.65;4.57;;;5.20;78.50;;;;;;5050197;28;20106;-75
2021/12/21 00:38:54;;;;;;;15.15;4.85;;;5.20;78.50;;;;;;5048320;28;20041;-75
2021/12/21 00:41:20;;;;;;;12.40;4.22;;;5.20;78.60;;;;;;5050034;28;20412;-75
2021/12/21 00:43:46;;;;;;;13.50;5.03;;;5.20;78.80;;;;;;5046800;28;20058;-75
2021/12/21 00:46:12;;;;;;;12.05;5.30;;;5.20;78.90;;;;;;5042727;28;20033;-75
2021/12/21 00:48:47;;;;;;;10.82;3.80;;;5.20;79.00;;;;;;5036010;28;20397;-75
2021/12/21 00:51:13;;;;;;;7.03;3.70;;;5.20;79.80;;;;;;5050003;28;20033;-74
2021/12/21 00:53:40;;;;;;;7.10;3.67;;;5.20;79.20;;;;;;5056074;28;20112;-75
2021/12/21 00:56:06;;;;;;;13.23;5.05;;;5.20;79.40;;;;;;5052390;28;20033;-75
2021/12/21 00:58:31;;;;;;;13.38;4.45;;;5.10;79.40;;;;;;5035065;28;20087;-75
2021/12/21 01:01:01;;;;;;;5.50;3.50;;;5.20;79.60;;;;;;5049227;28;20041;-75
2021/12/21 01:03:27;;;;;;;9.07;3.50;;;5.10;79.60;;;;;;5046555;28;20048;-75
2021/12/21 01:06:01;;;;;;;12.15;4.25;;;5.10;79.80;;;;;;5050367;28;20465;-75
2021/12/21 01:08:33;;;;;;;8.27;4.80;;;5.10;80.00;;;;;;5047930;28;20037;-75
2021/12/21 01:11:13;;;;;;;10.20;5.43;;;5.10;80.10;;;;;;5046021;28;20496;-75
2021/12/21 01:13:49;;;;;;;15.52;5.72;;;5.10;80.30;;;;;;5045859;28;20033;-75
2021/12/21 01:16:45;;;;;;;17.73;5.60;;;5.10;80.30;;;;;;5047495;28;20064;-75
2021/12/21 01:19:14;;;;;;;14.32;5.07;;;5.00;80.40;;;;;;5046849;28;20041;-75
2021/12/21 01:21:50;;;;;;;14.52;5.43;;;5.10;80.50;;;;;;5038842;28;20041;-75
2021/12/21 01:24:28;;;;;;;15.18;5.85;;;5.10;80.50;;;;;;5035271;28;20088;-75
2021/12/21 01:27:09;;;;;;;13.40;4.50;;;5.10;80.70;;;;;;5041318;28;20378;-75
2021/12/21 01:29:50;;;;;;;14.38;4.95;;;5.00;80.60;;;;;;5035351;28;20088;-75
2021/12/21 01:35:03;;;;;;;18.13;5.40;;;5.00;80.80;;;;;;5035932;28;20183;-75
2021/12/21 01:37:49;;;;;;;8.68;4.57;;;5.00;80.90;;;;;;5042485;28;20064;-75
2021/12/21 01:50:58;;;;;;;9.93;5.10;;;4.90;80.80;;;;;;5054138;28;20025;-75
2021/12/21 01:53:23;;;;;;;16.20;5.18;;;4.90;80.70;;;;;;5033735;28;20527;-75
2021/12/21 01:55:49;;;;;;;14.73;4.63;;;4.90;80.80;;;;;;5047682;28;20033;-75
2021/12/21 01:58:15;;;;;;;12.95;4.55;;;4.90;81.00;;;;;;5035455;28;20036;-75
2021/12/21 02:00:41;;;;;;;20.08;5.18;;;4.90;81.00;;;;;;5034936;28;20045;-75
2021/12/21 02:03:07;;;;;;;12.90;4.20;;;4.90;81.20;;;;;;5052984;28;20074;-75
2021/12/21 02:05:33;;;;;;;10.27;5.47;;;4.90;81.30;;;;;;5054124;28;20475;-77
2021/12/21 02:07:59;;;;;;;18.33;5.80;;;4.90;81.40;;;;;;5053740;28;20029;-75
2021/12/21 02:10:24;;;;;;;13.18;5.70;;;4.80;81.40;;;;;;5054101;28;20119;-75
2021/12/21 02:12:50;;;;;;;13.43;5.22;;;4.80;81.40;;;;;;5054257;28;20072;-75
2021/12/21 02:15:16;;;;;;;12.88;5.13;;;4.80;81.90;;;;;;5040137;28;20060;-75
2021/12/21 02:18:19;;;;;;;24.08;5.35;;;4.80;81.30;;;;;;5045015;28;20041;-75
2021/12/21 02:20:44;;;;;;;10.88;5.05;;;4.80;81.40;;;;;;5040934;28;20041;-75
2021/12/21 02:23:16;;;;;;;13.07;6.00;;;4.90;81.50;;;;;;5053445;28;20068;-75
2021/12/21 02:26:04;;;;;;;11.02;4.70;;;4.80;81.40;;;;;;5050251;28;20052;-75
2021/12/21 02:30:56;;;;;;;9.88;4.85;;;4.80;81.20;;;;;;5044608;28;20455;-74
2021/12/21 02:33:25;;;;;;;10.35;4.90;;;4.80;81.20;;;;;;5053799;28;20021;-75
2021/12/21 02:35:52;;;;;;;13.88;5.30;;;4.80;81.20;;;;;;5044058;28;20035;-74
2021/12/21 02:38:18;;;;;;;12.95;5.15;;;4.80;81.20;;;;;;5044630;28;20037;-75
2021/12/21 02:40:45;;;;;;;17.35;5.05;;;4.80;81.20;;;;;;5050470;28;20050;-74
2021/12/21 02:43:13;;;;;;;14.18;5.07;;;4.80;81.10;;;;;;5052733;28;20017;-73
2021/12/21 02:45:40;;;;;;;17.42;5.03;;;4.80;81.00;;;;;;5040483;28;20033;-74
2021/12/21 02:48:07;;;;;;;10.63;4.28;;;4.70;80.90;;;;;;5053632;28;20059;-74
2021/12/21 02:50:36;;;;;;;15.27;5.95;;;4.80;80.90;;;;;;5049168;28;20029;-74
2021/12/21 02:53:02;;;;;;;10.27;4.32;;;4.70;80.70;;;;;;5053343;28;20503;-74
2021/12/21 02:55:28;;;;;;;18.85;6.05;;;4.70;80.70;;;;;;5053225;28;20120;-74
2021/12/21 02:57:57;;;;;;;12.90;4.70;;;4.70;80.70;;;;;;5052645;28;20472;-74
2021/12/21 03:00:27;;;;;;;14.02;4.50;;;4.70;80.70;;;;;;5051868;28;20037;-74
2021/12/21 03:02:53;;;;;;;9.98;4.72;;;4.60;80.60;;;;;;5052951;28;20548;-73
2021/12/21 03:05:20;;;;;;;11.20;4.00;;;4.60;81.20;;;;;;5044368;28;20865;-74
2021/12/21 03:08:08;;;;;;;11.07;4.93;;;4.60;80.70;;;;;;5032967;28;20048;-73
2021/12/21 03:10:34;;;;;;;13.55;4.20;;;4.70;80.90;;;;;;5044729;28;20029;-74
2021/12/21 03:15:44;;;;;;;;;;;4.60;81.00;;;;;;5053509;28;20112;-74
2021/12/21 03:18:09;;;;;;;9.68;3.78;;;4.60;81.00;;;;;;5052307;28;19995;-74
2021/12/21 03:20:35;;;;;;;8.02;4.35;;;4.60;81.00;;;;;;5051343;28;20040;-74
2021/12/21 03:23:01;;;;;;;12.40;4.90;;;4.50;81.70;;;;;;5038085;28;20017;-74
2021/12/21 03:25:26;;;;;;;13.00;4.78;;;4.50;81.10;;;;;;5046510;28;20365;-74
2021/12/21 03:27:54;;;;;;;10.07;4.70;;;4.50;81.10;;;;;;5052507;28;20036;-74
2021/12/21 03:30:20;;;;;;;12.30;5.00;;;4.60;81.10;;;;;;5040194;28;20139;-74
2021/12/21 03:32:45;;;;;;;8.75;4.38;;;4.60;81.00;;;;;;5045127;28;20021;-74
2021/12/21 03:35:11;;;;;;;12.50;4.22;;;4.50;81.00;;;;;;5045387;28;20064;-74
2021/12/21 03:37:37;;;;;;;12.35;4.78;;;4.50;81.00;;;;;;5039241;28;20017;-74
2021/12/21 03:40:05;;;;;;;13.18;4.15;;;4.50;81.00;;;;;;5052210;28;20044;-74
2021/12/21 03:42:31;;;;;;;13.18;4.53;;;4.50;81.10;;;;;;5040359;28;20029;-74
2021/12/21 03:44:56;;;;;;;10.73;4.93;;;4.50;81.10;;;;;;5038568;28;20438;-74
2021/12/21 03:47:23;;;;;;;10.95;4.30;;;4.50;81.10;;;;;;5032158;28;20030;-74
2021/12/21 03:49:55;;;;;;;12.15;4.45;;;4.50;81.20;;;;;;5046338;28;20029;-74
2021/12/21 03:52:24;;;;;;;11.07;4.47;;;4.50;81.20;;;;;;5031845;28;20397;-74
2021/12/21 03:54:54;;;;;;;9.82;4.30;;;4.50;81.10;;;;;;5032535;28;20033;-74
2021/12/21 03:57:20;;;;;;;9.45;4.38;;;4.50;81.10;;;;;;5038878;28;20123;-74
2021/12/21 03:59:49;;;;;;;9.10;4.55;;;4.50;81.10;;;;;;5051181;28;20152;-74
2021/12/21 04:02:16;;;;;;;7.78;3.75;;;4.40;81.00;;;;;;5052532;28;20099;-74
2021/12/21 04:04:44;;;;;;;10.27;4.72;;;4.50;81.00;;;;;;5038873;28;20400;-74
2021/12/21 04:07:10;;;;;;;7.15;3.80;;;4.40;80.90;;;;;;5039853;28;20519;-73
2021/12/21 04:09:36;;;;;;;14.93;4.70;;;4.40;80.90;;;;;;5037940;28;20060;-73
2021/12/21 04:12:01;;;;;;;10.40;4.47;;;4.40;80.80;;;;;;5052430;28;20389;-73
2021/12/21 04:14:32;;;;;;;12.52;3.72;;;4.40;80.80;;;;;;5032067;28;20026;-73
2021/12/21 04:16:58;;;;;;;7.68;3.30;;;4.40;80.80;;;;;;5045917;28;20060;-73
2021/12/21 04:19:24;;;;;;;7.13;3.22;;;4.40;80.80;;;;;;5044873;28;21172;-73
2021/12/21 04:21:52;;;;;;;9.93;4.28;;;4.30;80.70;;;;;;5044803;28;20484;-73
2021/12/21 04:24:18;;;;;;;10.27;4.38;;;4.30;80.60;;;;;;5032399;28;20034;-73
2021/12/21 04:26:44;;;;;;;9.82;3.78;;;4.30;80.60;;;;;;5047000;28;20075;-73
2021/12/21 04:29:13;;;;;;;11.10;4.32;;;4.30;80.60;;;;;;5051589;28;20033;-73
2021/12/21 04:31:39;;;;;;;10.20;4.40;;;4.30;80.60;;;;;;5043832;28;20110;-73
2021/12/21 04:34:05;;;;;;;9.02;4.00;;;4.30;80.60;;;;;;5046180;28;20060;-73
2021/12/21 04:36:30;;;;;;;10.43;3.80;;;4.30;80.50;;;;;;5051597;28;20423;-73
2021/12/21 04:39:00;;;;;;;12.32;4.07;;;4.30;80.60;;;;;;5034684;28;20120;-73
2021/12/21 04:41:28;;;;;;;9.02;3.80;;;4.30;80.60;;;;;;5043759;28;20070;-73
2021/12/21 04:43:57;;;;;;;7.75;3.60;;;4.30;80.60;;;;;;5037774;28;20753;-73
2021/12/21 04:46:24;;;;;;;10.48;4.45;;;4.20;80.50;;;;;;5051907;28;20033;-73
2021/12/21 04:48:51;;;;;;;7.63;3.70;;;4.30;80.70;;;;;;5031759;28;20116;-73
2021/12/21 04:51:17;;;;;;;10.38;3.88;;;4.30;80.70;;;;;;5045496;28;20393;-73
2021/12/21 04:53:43;;;;;;;5.95;3.40;;;4.20;80.60;;;;;;5052135;28;20434;-73
2021/12/21 04:56:08;;;;;;;11.10;4.13;;;4.30;80.60;;;;;;5037995;28;20041;-74
2021/12/21 04:58:35;;;;;;;12.20;3.92;;;4.20;80.60;;;;;;5045918;28;20025;-75
2021/12/21 05:01:00;;;;;;;9.77;4.18;;;4.20;80.50;;;;;;5032891;28;20476;-74
2021/12/21 05:03:26;;;;;;;8.23;3.80;;;4.20;80.40;;;;;;5043322;28;20037;-74
2021/12/21 05:05:52;;;;;;;11.13;3.85;;;4.20;80.40;;;;;;5032527;28;20038;-74
2021/12/21 05:08:24;;;;;;;8.30;3.90;;;4.20;80.30;;;;;;5040549;28;20025;-74
2021/12/21 05:10:54;;;;;;;6.93;3.65;;;4.20;80.30;;;;;;5036253;28;20048;-74
2021/12/21 05:13:22;;;;;;;9.07;3.65;;;4.20;80.40;;;;;;5045626;28;20519;-74
2021/12/21 05:15:48;;;;;;;7.72;3.65;;;4.20;80.40;;;;;;5051370;28;20037;-78
2021/12/21 05:18:16;;;;;;;11.30;4.25;;;4.10;80.30;;;;;;5035157;28;20441;-76
2021/12/21 05:20:42;;;;;;;11.82;4.53;;;4.10;80.20;;;;;;5041986;28;20108;-77
2021/12/21 05:23:08;;;;;;;11.35;4.28;;;4.10;80.20;;;;;;5055267;28;20052;-76
2021/12/21 05:25:35;;;;;;;11.70;3.80;;;4.10;80.20;;;;;;5049081;28;20025;-75
2021/12/21 05:28:00;;;;;;;10.05;3.78;;;4.10;80.20;;;;;;5035194;28;20114;-76
2021/12/21 05:30:29;;;;;;;7.78;3.63;;;4.00;80.00;;;;;;5040761;28;20116;-74
2021/12/21 05:32:56;;;;;;;12.95;4.15;;;4.00;80.00;;;;;;5054484;28;20037;-75
2021/12/21 05:35:25;;;;;;;10.93;3.80;;;4.00;80.60;;;;;;5049188;28;20042;-74
2021/12/21 05:37:54;;;;;;;6.95;3.80;;;4.00;80.00;;;;;;5054375;28;20029;-74
2021/12/21 05:40:20;;;;;;;7.03;3.40;;;4.00;79.90;;;;;;5042085;28;20136;-72
2021/12/21 05:42:47;;;;;;;7.75;3.60;;;4.00;79.90;;;;;;5045944;28;20587;-73
2021/12/21 05:45:15;;;;;;;8.88;3.65;;;4.00;80.00;;;;;;5037163;28;20061;-73
2021/12/21 05:47:42;;;;;;;9.18;3.42;;;4.00;80.00;;;;;;5044500;28;20032;-72
2021/12/21 05:50:14;;;;;;;10.98;4.40;;;4.00;80.00;;;;;;5051793;28;20041;-72
2021/12/21 05:52:40;;;;;;;10.68;4.43;;;3.90;80.00;;;;;;5053790;28;20057;-72
2021/12/21 05:55:06;;;;;;;8.02;3.85;;;4.00;80.00;;;;;;5036699;28;20076;-72
2021/12/21 05:57:32;;;;;;;12.77;3.88;;;3.90;80.00;;;;;;5034778;28;20038;-72
2021/12/21 05:59:58;;;;;;;15.48;4.60;;;4.00;80.20;;;;;;5052726;28;20035;-72
2021/12/21 06:02:23;;;;;;;10.88;4.72;;;3.90;80.20;;;;;;5042867;28;20354;-72
2021/12/21 06:04:49;;;;;;;8.35;3.92;;;3.90;80.30;;;;;;5048322;28;20068;-72
2021/12/21 06:07:15;;;;;;;7.57;3.67;;;3.90;80.40;;;;;;5032972;28;20045;-73
2021/12/21 06:09:44;;;;;;;12.18;4.97;;;3.90;80.40;;;;;;5033993;28;20384;-73
2021/12/21 06:12:33;;;;;;;7.53;4.13;;;3.90;80.50;;;;;;5033777;28;20036;-72
2021/12/21 06:15:19;;;;;;;11.25;4.13;;;3.90;80.50;;;;;;5033103;28;20045;-72
2021/12/21 06:23:40;;;;;;;8.23;3.90;;;3.90;80.70;;;;;;5035998;28;20025;-73
2021/12/21 06:26:07;;;;;;;6.97;3.72;;;3.90;80.70;;;;;;5033179;28;20572;-73
2021/12/21 06:28:33;;;;;;;11.85;4.45;;;3.80;80.70;;;;;;5034654;28;20065;-73
2021/12/21 06:30:59;;;;;;;9.20;3.70;;;3.90;80.90;;;;;;5034655;28;20065;-72
2021/12/21 06:33:25;;;;;;;10.82;4.50;;;3.90;80.90;;;;;;5033461;28;20033;-72
2021/12/21 06:35:51;;;;;;;10.13;4.57;;;3.80;81.00;;;;;;5037796;28;20026;-72
2021/12/21 06:38:17;;;;;;;8.07;4.32;;;3.90;81.00;;;;;;5033341;28;20391;-72
2021/12/21 06:40:43;;;;;;;7.10;3.85;;;3.90;81.00;;;;;;5033083;28;20051;-72
2021/12/21 06:43:13;;;;;;;13.45;5.38;;;3.80;80.90;;;;;;5035109;28;20465;-72
2021/12/21 06:53:32;;;;;;;15.30;5.38;;;3.80;80.60;;;;;;5032875;28;20025;-73
2021/12/21 06:55:58;;;;;;;8.48;4.70;;;3.80;80.50;;;;;;5035156;28;20091;-72
2021/12/21 06:58:23;;;;;;;12.23;5.63;;;3.80;80.50;;;;;;5044365;28;20115;-72
2021/12/21 07:00:52;;;;;;;10.82;5.22;;;3.80;80.50;;;;;;5053098;28;20029;-72
2021/12/21 07:03:17;;;;;;;10.27;5.03;;;3.80;80.50;;;;;;5052708;28;20059;-73
2021/12/21 07:05:46;;;;;;;12.77;6.07;;;3.70;80.40;;;;;;5048030;28;20489;-73
2021/12/21 07:08:13;;;;;;;11.55;5.95;;;3.80;80.40;;;;;;5045375;28;20036;-72
2021/12/21 07:10:40;;;;;;;15.30;5.72;;;3.80;80.40;;;;;;5032594;28;20025;-73
2021/12/21 07:18:49;;;;;;;12.88;5.15;;;3.70;80.20;;;;;;5031086;28;20048;-72
2021/12/21 07:21:14;;;;;;;9.57;4.80;;;3.70;80.20;;;;;;5052989;28;20044;-72
2021/12/21 07:23:40;;;;;;;12.40;4.80;;;3.70;80.20;;;;;;5052008;28;20115;-72
2021/12/21 07:26:07;;;;;;;22.05;7.82;;;3.70;80.20;;;;;;5046495;28;20021;-72
2021/12/21 07:28:33;;;;;;;10.80;5.53;;;3.60;80.10;;;;;;5035422;28;20044;-72
2021/12/21 07:30:59;;;;;;;9.05;4.90;;;3.60;80.10;;;;;;5041577;28;20606;-71
2021/12/21 07:33:24;;;;;;;11.50;4.97;;;3.60;80.10;;;;;;5042707;28;20120;-73
2021/12/21 07:35:50;;;;;;;8.38;4.32;;;3.60;80.10;;;;;;5049367;28;20036;-72
2021/12/21 07:38:17;;;;;;;11.68;5.45;;;3.60;80.10;;;;;;5040897;28;20037;-72
2021/12/21 07:40:43;;;;;;;14.27;6.57;;;3.60;80.20;;;;;;5033369;28;20048;-71
2021/12/21 07:43:09;;;;;;;25.77;7.97;;;3.60;80.20;;;;;;5044487;28;20025;-73
2021/12/21 07:45:34;;;;;;;22.27;8.27;;;3.60;80.80;;;;;;5048180;28;20032;-72
2021/12/21 07:48:00;;;;;;;21.70;8.20;;;3.60;80.20;;;;;;5034663;28;20479;-72
2021/12/21 07:50:26;;;;;;;23.60;9.65;;;3.60;80.10;;;;;;5032191;28;20029;-72
2021/12/21 07:52:54;;;;;;;32.00;10.20;;;3.60;80.10;;;;;;5028392;28;20045;-72
2021/12/21 07:55:20;;;;;;;33.88;9.98;;;3.60;80.20;;;;;;5040742;28;20047;-73
2021/12/21 07:57:46;;;;;;;38.17;10.90;;;3.60;80.10;;;;;;5045083;28;20032;-72
2021/12/21 08:00:13;;;;;;;35.05;10.95;;;3.60;80.10;;;;;;5045771;28;20041;-72
2021/12/21 08:02:40;;;;;;;30.70;8.65;;;3.60;80.10;;;;;;5043538;28;20029;-73
2021/12/21 08:05:08;;;;;;;17.58;7.88;;;3.60;80.10;;;;;;5044091;28;20357;-73
2021/12/21 08:07:39;;;;;;;26.38;6.78;;;3.60;80.20;;;;;;5049084;28;20035;-72
2021/12/21 08:10:18;;;;;;;19.67;7.63;;;3.60;80.30;;;;;;5048394;28;20029;-73
2021/12/21 08:12:45;;;;;;;21.05;6.43;;;3.50;80.40;;;;;;5049561;28;20037;-73
2021/12/21 08:15:14;;;;;;;20.70;7.05;;;3.50;80.50;;;;;;5048236;28;20033;-73
2021/12/21 08:17:39;;;;;;;13.20;5.80;;;3.50;80.60;;;;;;5047543;28;20020;-72
2021/12/21 08:20:05;;;;;;;14.05;4.93;;;3.50;80.70;;;;;;5049667;28;20538;-73
2021/12/21 08:22:31;;;;;;;7.88;3.72;;;3.50;80.70;;;;;;5050525;28;20032;-72
2021/12/21 08:24:56;;;;;;;7.13;3.65;;;3.50;80.90;;;;;;5046182;28;20025;-73
2021/12/21 08:27:22;;;;;;;7.82;4.20;;;3.50;81.30;;;;;;5049601;28;20053;-70
2021/12/21 08:29:48;;;;;;;12.15;3.83;;;3.50;81.60;;;;;;5050575;28;20103;-72
2021/12/21 08:32:13;;;;;;;11.18;3.38;;;3.40;81.70;;;;;;5050405;28;20029;-73
2021/12/21 08:34:39;;;;;;;13.55;4.53;;;3.40;81.90;;;;;;5042548;28;20436;-73
2021/12/21 08:37:05;;;;;;;9.25;3.53;;;3.40;82.10;;;;;;5044209;28;20075;-71
2021/12/21 08:39:38;;;;;;;9.50;3.72;;;3.40;82.20;;;;;;5046016;28;20029;-71
2021/12/21 08:42:13;;;;;;;6.30;3.33;;;3.40;82.30;;;;;;5043405;28;20025;-71
2021/12/21 08:44:40;;;;;;;11.27;4.20;;;3.40;82.30;;;;;;5045749;28;20032;-71
2021/12/21 08:47:06;;;;;;;10.25;3.90;;;3.40;82.30;;;;;;5053803;28;20032;-71
2021/12/21 08:49:32;;;;;;;6.30;3.85;;;3.40;82.30;;;;;;5053378;28;20032;-71
2021/12/21 08:51:58;;;;;;;8.45;3.85;;;3.40;82.30;;;;;;5053086;28;20045;-72
2021/12/21 08:54:24;;;;;;;9.40;3.97;;;3.50;82.30;;;;;;5048804;28;20025;-71
2021/12/21 08:56:51;;;;;;;7.68;3.30;;;3.50;82.30;;;;;;5046642;28;20490;-71
2021/12/21 08:59:17;;;;;;;5.00;3.15;;;3.50;82.30;;;;;;5050018;28;20396;-71
2021/12/21 09:01:45;;;;;;;6.45;3.83;;;3.40;82.30;;;;;;5045040;28;20420;-70
2021/12/21 09:04:11;;;;;;;6.32;3.90;;;3.50;82.40;;;;;;5050004;28;20041;-70
2021/12/21 09:06:36;;;;;;;10.18;4.20;;;3.40;82.40;;;;;;5051591;28;20060;-70
2021/12/21 09:09:04;;;;;;;9.50;3.83;;;3.50;82.50;;;;;;5041140;28;20069;-71
2021/12/21 09:11:30;;;;;;;9.65;3.78;;;3.50;82.60;;;;;;5044105;28;20411;-70
2021/12/21 09:13:55;;;;;;;6.53;3.58;;;3.50;82.60;;;;;;5039857;28;20091;-71
2021/12/21 09:16:21;;;;;;;10.07;4.47;;;3.50;82.60;;;;;;5039838;28;20022;-70
2021/12/21 09:18:47;;;;;;;7.00;4.03;;;3.50;82.60;;;;;;5036931;28;20460;-70
2021/12/21 09:21:12;;;;;;;7.25;3.80;;;3.50;82.70;;;;;;5034199;28;20025;-70
2021/12/21 09:23:39;;;;;;;7.28;3.75;;;3.50;82.80;;;;;;5036432;28;20113;-71
2021/12/21 09:26:05;;;;;;;9.05;4.05;;;3.40;82.80;;;;;;5034982;28;20105;-71
2021/12/21 09:28:31;;;;;;;12.88;4.10;;;3.40;82.90;;;;;;5048955;28;20463;-70
2021/12/21 09:30:57;;;;;;;14.13;4.40;;;3.40;82.90;;;;;;5034459;28;20025;-72
2021/12/21 09:33:22;;;;;;;8.73;3.70;;;3.40;83.00;;;;;;5034461;28;20431;-72
2021/12/21 09:35:49;;;;;;;7.35;3.65;;;3.40;83.20;;;;;;5038978;28;20535;-72
2021/12/21 09:38:15;;;;;;;13.25;3.60;;;3.40;83.20;;;;;;5033583;28;20036;-72
2021/12/21 09:40:40;;;;;;;13.77;4.15;;;3.40;83.30;;;;;;5036400;28;20045;-72
2021/12/21 09:43:11;;;;;;;7.95;4.32;;;3.40;83.40;;;;;;5037407;28;20060;-72
2021/12/21 09:45:38;;;;;;;7.40;3.97;;;3.40;83.50;;;;;;5033487;28;20034;-72
2021/12/21 09:48:04;;;;;;;7.88;3.83;;;3.40;83.60;;;;;;5039761;28;20026;-72
2021/12/21 09:50:30;;;;;;;7.75;3.83;;;3.40;83.70;;;;;;5034150;28;20152;-71
2021/12/21 09:52:56;;;;;;;12.30;4.40;;;3.40;83.80;;;;;;5033819;28;20054;-72
2021/12/21 09:55:22;;;;;;;14.32;4.15;;;3.40;83.80;;;;;;5040802;28;20029;-72
2021/12/21 09:57:49;;;;;;;9.02;4.18;;;3.50;83.90;;;;;;5044811;28;20112;-72
2021/12/21 10:00:18;;;;;;;9.50;4.03;;;3.50;84.00;;;;;;5037385;28;20041;-73
2021/12/21 10:02:44;;;;;;;8.95;4.32;;;3.50;84.00;;;;;;5034265;28;20029;-74
2021/12/21 10:05:17;;;;;;;8.73;4.60;;;3.60;84.10;;;;;;5038526;28;20033;-72
2021/12/21 10:07:53;;;;;;;6.18;2.92;;;3.50;84.10;;;;;;5053380;28;20103;-71
2021/12/21 10:10:21;;;;;;;7.43;3.78;;;3.60;84.10;;;;;;5048664;28;20033;-71
2021/12/21 10:12:47;;;;;;;9.50;3.50;;;3.60;84.20;;;;;;5049549;28;20031;-70
2021/12/21 10:15:24;;;;;;;15.40;4.30;;;3.60;84.20;;;;;;5050359;28;20506;-72
2021/12/21 10:17:54;;;;;;;7.75;3.67;;;3.60;84.30;;;;;;5053035;28;20032;-72
2021/12/21 10:20:43;;;;;;;8.57;4.50;;;3.70;84.40;;;;;;5052607;28;20441;-71
2021/12/21 10:23:17;;;;;;;9.35;3.63;;;3.60;84.50;;;;;;5052890;28;20032;-70
2021/12/21 10:26:10;;;;;;;6.95;3.42;;;3.70;84.50;;;;;;5042255;28;20030;-69
2021/12/21 10:28:45;;;;;;;8.27;3.92;;;3.70;84.70;;;;;;5046041;28;20056;-69
2021/12/21 10:31:23;;;;;;;5.25;3.25;;;3.70;84.80;;;;;;5043929;28;20068;-69
2021/12/21 10:33:49;;;;;;;4.30;2.95;;;3.70;84.90;;;;;;5041217;28;20033;-69
2021/12/21 10:36:16;;;;;;;10.00;4.20;;;3.70;85.00;;;;;;5045434;28;20033;-69
2021/12/21 10:38:49;;;;;;;6.30;3.42;;;3.70;85.20;;;;;;5040108;28;20381;-69
2021/12/21 10:41:21;;;;;;;7.35;3.58;;;3.70;85.20;;;;;;5038855;28;20465;-69
2021/12/21 10:44:16;;;;;;;13.80;4.10;;;3.70;85.30;;;;;;5039510;28;20033;-69
2021/12/21 10:46:48;;;;;;;5.47;2.85;;;3.80;85.50;;;;;;5045174;28;20021;-69
2021/12/21 10:49:18;;;;;;;13.35;4.00;;;3.80;85.70;;;;;;5043591;28;20032;-70
2021/12/21 10:52:05;;;;;;;5.50;2.70;;;3.70;85.70;;;;;;5041450;28;20124;-70
2021/12/21 10:54:44;;;;;;;7.28;3.03;;;3.70;86.10;;;;;;5040243;28;20131;-70
2021/12/21 10:57:31;;;;;;;8.15;3.30;;;3.70;86.20;;;;;;5047560;28;20034;-69
2021/12/21 10:59:59;;;;;;;1.40;1.30;;;3.70;86.50;;;;;;5051993;28;20477;-69
2021/12/21 11:02:29;;;;;;;7.32;3.33;;;3.70;86.70;;;;;;5051732;28;20052;-70
2021/12/21 11:05:07;;;;;;;4.40;2.60;;;3.70;86.80;;;;;;5043069;28;20037;-71
2021/12/21 11:07:43;;;;;;;9.90;3.78;;;3.70;87.00;;;;;;5032964;28;20065;-70
2021/12/21 11:10:19;;;;;;;1.40;1.30;;;3.70;87.20;;;;;;5044717;28;20429;-69
2021/12/21 11:12:50;;;;;;;4.90;3.10;;;3.70;87.40;;;;;;5043889;28;20065;-68
2021/12/21 11:15:21;;;;;;;10.32;4.15;;;3.70;87.60;;;;;;5050145;28;20025;-68
2021/12/21 11:17:48;;;;;;;4.68;2.40;;;3.70;87.80;;;;;;5047484;28;20029;-68
2021/12/21 11:20:16;;;;;;;5.10;3.00;;;3.70;88.00;;;;;;5045589;28;20045;-68
2021/12/21 11:22:43;;;;;;;6.28;3.42;;;3.70;88.00;;;;;;5031832;28;20084;-69
2021/12/21 11:25:11;;;;;;;4.75;1.92;;;3.80;88.20;;;;;;5037158;28;20029;-69
2021/12/21 11:27:39;;;;;;;2.40;1.67;;;3.80;88.40;;;;;;5036487;28;20025;-69
2021/12/21 11:30:08;;;;;;;6.63;2.90;;;3.80;88.50;;;;;;5038589;28;20108;-69
2021/12/21 11:32:39;;;;;;;7.85;3.38;;;3.80;88.50;;;;;;5040542;28;20040;-69
2021/12/21 11:37:43;;;;;;;6.85;2.90;;;3.90;88.80;;;;;;5035031;28;20079;-69
2021/12/21 11:40:12;;;;;;;12.18;4.55;;;4.00;89.00;;;;;;5033816;28;20485;-69
2021/12/21 11:42:50;;;;;;;12.40;4.15;;;4.00;89.00;;;;;;5045786;28;20469;-69
2021/12/21 11:45:32;;;;;;;8.40;3.85;;;4.10;89.10;;;;;;5044956;28;20029;-69
2021/12/21 11:48:18;;;;;;;7.53;4.32;;;4.10;89.20;;;;;;5042765;28;20039;-70
2021/12/21 11:50:47;;;;;;;3.50;2.45;;;4.20;89.10;;;;;;5032802;28;20036;-69
2021/12/21 11:53:17;;;;;;;6.93;2.58;;;4.20;89.10;;;;;;5034578;28;20045;-69
2021/12/21 11:55:45;;;;;;;12.10;3.88;;;4.30;89.30;;;;;;5031659;28;20048;-69
2021/12/21 11:58:20;;;;;;;5.38;2.83;;;4.30;89.30;;;;;;5031992;28;20056;-69
2021/12/21 12:00:54;;;;;;;4.70;2.63;;;4.40;89.40;;;;;;5032044;28;20045;-69
2021/12/21 12:03:23;;;;;;;8.20;3.05;;;4.40;89.40;;;;;;5033107;28;20022;-69
2021/12/21 12:05:52;;;;;;;10.15;3.88;;;4.50;89.50;;;;;;5030830;28;20388;-69
2021/12/21 12:08:18;;;;;;;5.18;3.20;;;4.50;89.50;;;;;;5034165;28;20508;-69
2021/12/21 12:10:58;;;;;;;5.25;2.38;;;4.50;89.60;;;;;;5033637;28;20101;-69
2021/12/21 12:13:33;;;;;;;5.72;3.00;;;4.60;89.70;;;;;;5030949;28;20040;-69
2021/12/21 12:16:11;;;;;;;9.43;3.42;;;4.60;89.80;;;;;;5034507;28;20037;-69
2021/12/21 12:18:42;;;;;;;11.45;3.22;;;4.70;89.90;;;;;;5037804;28;20108;-69
2021/12/21 12:21:28;;;;;;;4.25;2.47;;;4.80;90.00;;;;;;5042648;28;20052;-69
2021/12/21 12:23:56;;;;;;;2.15;1.38;;;4.80;90.00;;;;;;5054166;28;20472;-69
2021/12/21 12:26:26;;;;;;;5.88;1.85;;;4.80;90.20;;;;;;5050770;28;20120;-69
2021/12/21 12:28:54;;;;;;;12.10;3.53;;;4.90;90.30;;;;;;5051457;28;20061;-69
2021/12/21 12:31:28;;;;;;;1.13;1.13;;;4.90;90.40;;;;;;5051886;28;20858;-69
2021/12/21 12:33:54;;;;;;;1.58;1.35;;;4.90;90.60;;;;;;5052167;28;20021;-70
2021/12/21 12:36:19;;;;;;;7.93;2.38;;;4.90;90.60;;;;;;5053948;28;20502;-69
2021/12/21 12:38:47;;;;;;;5.68;1.67;;;5.00;90.70;;;;;;5054062;28;20017;-69
2021/12/21 12:41:13;;;;;;;0.88;0.88;;;5.00;90.80;;;;;;5053109;28;20033;-69
2021/12/21 12:43:44;;;;;;;7.00;2.95;;;5.00;90.90;;;;;;5052303;28;20032;-69
2021/12/21 12:46:21;;;;;;;5.68;2.40;;;5.10;91.00;;;;;;5052796;28;20472;-69
2021/12/21 12:48:48;;;;;;;5.63;2.13;;;5.10;91.00;;;;;;5052552;28;20025;-69
2021/12/21 12:51:26;;;;;;;7.78;2.63;;;5.20;91.10;;;;;;5053471;28;20436;-69
2021/12/21 12:53:53;;;;;;;4.07;2.25;;;5.30;91.10;;;;;;5053483;28;20044;-69
2021/12/21 12:56:20;;;;;;;4.10;1.55;;;5.30;91.30;;;;;;5047913;28;20041;-69
2021/12/21 12:58:56;;;;;;;8.48;2.60;;;5.30;91.30;;;;;;5048504;28;20447;-69
2021/12/21 13:01:25;;;;;;;5.43;2.33;;;5.40;91.30;;;;;;5047924;28;20029;-70
2021/12/21 13:03:54;;;;;;;4.75;2.00;;;5.50;91.50;;;;;;5049374;28;20040;-70
2021/12/21 13:06:40;;;;;;;6.93;2.88;;;5.50;91.50;;;;;;5045178;28;20465;-70
2021/12/21 13:09:09;;;;;;;9.00;2.95;;;5.60;91.50;;;;;;5045801;28;20064;-73
2021/12/21 13:11:40;;;;;;;10.77;2.67;;;5.60;91.50;;;;;;5039971;28;20104;-70
2021/12/21 13:14:08;;;;;;;5.95;2.55;;;5.70;91.50;;;;;;5036168;28;20074;-70
2021/12/21 13:16:36;;;;;;;3.60;2.08;;;5.70;91.50;;;;;;5039502;28;20045;-69
2021/12/21 13:19:09;;;;;;;9.00;3.22;;;5.80;91.60;;;;;;5040904;28;20042;-70
2021/12/21 13:21:54;;;;;;;5.35;2.90;;;5.90;91.50;;;;;;5044230;28;20075;-69
2021/12/21 13:24:25;;;;;;;6.05;2.95;;;6.00;91.60;;;;;;5038600;28;20095;-69
2021/12/21 13:26:57;;;;;;;8.90;3.28;;;6.00;91.40;;;;;;5039993;28;20477;-69
2021/12/21 13:29:35;;;;;;;5.03;2.13;;;6.10;91.40;;;;;;5040978;28;20033;-70
2021/12/21 13:32:05;;;;;;;7.25;2.85;;;6.10;91.50;;;;;;5039155;28;20095;-69
2021/12/21 13:34:31;;;;;;;9.82;2.65;;;6.20;91.60;;;;;;5040920;28;20075;-70
2021/12/21 13:37:01;;;;;;;9.27;2.92;;;6.20;91.70;;;;;;5038063;28;20025;-69
2021/12/21 13:39:32;;;;;;;8.18;2.42;;;6.30;91.60;;;;;;5040587;28;20048;-69
2021/12/21 13:42:00;;;;;;;12.63;3.13;;;6.30;91.60;;;;;;5040175;28;20032;-69
2021/12/21 13:44:30;;;;;;;4.45;2.22;;;6.30;91.60;;;;;;5038511;28;20025;-69
2021/12/21 13:46:59;;;;;;;6.03;2.33;;;6.40;91.60;;;;;;5039736;28;20033;-69